sensor_id;sensor_type;location;lat;lon;timestamp;P1;durP1;ratioP1;P2;durP2;ratioP2
7179;SDS011;3631;42.152;24.756;2024-01-11T00:00:30;55.47;;;26.13;;
7179;SDS011;3631;42.152;24.756;2024-01-11T00:02:57;61.50;;;27.17;;
7179;SDS011;3631;42.152;24.756;2024-01-11T00:05:26;53.57;;;26.67;;
7179;SDS011;3631;42.152;24.756;2024-01-11T00:07:52;51.70;;;25.17;;
7179;SDS011;3631;42.152;24.756;2024-01-11T00:10:20;55.90;;;25.43;;
7179;SDS011;3631;42.152;24.756;2024-01-11T00:12:46;48.23;;;23.33;;
7179;SDS011;3631;42.152;24.756;2024-01-11T00:15:13;56.63;;;22.37;;
7179;SDS011;3631;42.152;24.756;2024-01-11T00:17:40;45.13;;;22.33;;
7179;SDS011;3631;42.152;24.756;2024-01-11T00:20:08;38.37;;;19.00;;
7179;SDS011;3631;42.152;24.756;2024-01-11T00:22:37;40.13;;;20.27;;
7179;SDS011;3631;42.152;24.756;2024-01-11T00:25:04;43.63;;;21.47;;
7179;SDS011;3631;42.152;24.756;2024-01-11T00:27:31;41.80;;;21.27;;
7179;SDS011;3631;42.152;24.756;2024-01-11T00:29:58;51.33;;;23.53;;
7179;SDS011;3631;42.152;24.756;2024-01-11T00:32:25;49.47;;;23.40;;
7179;SDS011;3631;42.152;24.756;2024-01-11T00:34:52;51.37;;;25.30;;
7179;SDS011;3631;42.152;24.756;2024-01-11T00:37:19;47.87;;;23.70;;
7179;SDS011;3631;42.152;24.756;2024-01-11T00:39:46;51.17;;;23.57;;
7179;SDS011;3631;42.152;24.756;2024-01-11T00:42:13;57.63;;;24.23;;
7179;SDS011;3631;42.152;24.756;2024-01-11T00:44:40;53.00;;;24.77;;
7179;SDS011;3631;42.152;24.756;2024-01-11T00:47:07;46.37;;;23.07;;
7179;SDS011;3631;42.152;24.756;2024-01-11T00:49:34;43.40;;;22.23;;
7179;SDS011;3631;42.152;24.756;2024-01-11T00:52:00;59.27;;;24.53;;
7179;SDS011;3631;42.152;24.756;2024-01-11T00:54:27;54.87;;;24.27;;
7179;SDS011;3631;42.152;24.756;2024-01-11T00:56:56;45.03;;;23.17;;
7179;SDS011;3631;42.152;24.756;2024-01-11T00:59:23;47.30;;;23.10;;
7179;SDS011;3631;42.152;24.756;2024-01-11T01:01:50;45.73;;;23.60;;
7179;SDS011;3631;42.152;24.756;2024-01-11T01:04:17;53.30;;;24.03;;
7179;SDS011;3631;42.152;24.756;2024-01-11T01:06:44;43.03;;;23.23;;
7179;SDS011;3631;42.152;24.756;2024-01-11T01:09:11;46.87;;;23.87;;
7179;SDS011;3631;42.152;24.756;2024-01-11T01:11:38;48.23;;;23.43;;
7179;SDS011;3631;42.152;24.756;2024-01-11T01:14:07;48.97;;;23.03;;
7179;SDS011;3631;42.152;24.756;2024-01-11T01:16:33;49.03;;;23.27;;
7179;SDS011;3631;42.152;24.756;2024-01-11T01:19:00;53.10;;;23.47;;
7179;SDS011;3631;42.152;24.756;2024-01-11T01:21:27;47.37;;;22.83;;
7179;SDS011;3631;42.152;24.756;2024-01-11T01:23:54;51.33;;;23.37;;
7179;SDS011;3631;42.152;24.756;2024-01-11T01:26:21;53.53;;;22.53;;
7179;SDS011;3631;42.152;24.756;2024-01-11T01:28:48;53.10;;;23.37;;
7179;SDS011;3631;42.152;24.756;2024-01-11T01:31:16;52.93;;;22.90;;
7179;SDS011;3631;42.152;24.756;2024-01-11T01:33:43;51.77;;;25.00;;
7179;SDS011;3631;42.152;24.756;2024-01-11T01:36:10;61.70;;;23.50;;
7179;SDS011;3631;42.152;24.756;2024-01-11T01:38:37;51.10;;;23.57;;
7179;SDS011;3631;42.152;24.756;2024-01-11T01:41:04;47.47;;;23.23;;
7179;SDS011;3631;42.152;24.756;2024-01-11T01:43:30;50.83;;;23.83;;
7179;SDS011;3631;42.152;24.756;2024-01-11T01:45:57;47.87;;;23.03;;
7179;SDS011;3631;42.152;24.756;2024-01-11T01:48:26;53.50;;;24.40;;
7179;SDS011;3631;42.152;24.756;2024-01-11T01:50:54;45.97;;;22.97;;
7179;SDS011;3631;42.152;24.756;2024-01-11T01:53:22;50.83;;;23.27;;
7179;SDS011;3631;42.152;24.756;2024-01-11T01:55:50;49.73;;;22.80;;
7179;SDS011;3631;42.152;24.756;2024-01-11T01:58:19;44.83;;;22.30;;
7179;SDS011;3631;42.152;24.756;2024-01-11T02:00:47;52.37;;;23.90;;
7179;SDS011;3631;42.152;24.756;2024-01-11T02:03:16;61.90;;;23.73;;
7179;SDS011;3631;42.152;24.756;2024-01-11T02:05:45;57.37;;;22.20;;
7179;SDS011;3631;42.152;24.756;2024-01-11T02:08:15;42.07;;;20.60;;
7179;SDS011;3631;42.152;24.756;2024-01-11T02:10:43;40.70;;;18.93;;
7179;SDS011;3631;42.152;24.756;2024-01-11T02:13:11;43.67;;;20.97;;
7179;SDS011;3631;42.152;24.756;2024-01-11T02:15:39;42.53;;;20.10;;
7179;SDS011;3631;42.152;24.756;2024-01-11T02:18:06;42.57;;;20.27;;
7179;SDS011;3631;42.152;24.756;2024-01-11T02:20:33;45.73;;;22.13;;
7179;SDS011;3631;42.152;24.756;2024-01-11T02:23:03;45.73;;;20.87;;
7179;SDS011;3631;42.152;24.756;2024-01-11T02:25:34;47.70;;;22.13;;
7179;SDS011;3631;42.152;24.756;2024-01-11T02:28:00;37.00;;;19.20;;
7179;SDS011;3631;42.152;24.756;2024-01-11T02:30:27;38.03;;;18.80;;
7179;SDS011;3631;42.152;24.756;2024-01-11T02:32:54;42.53;;;19.27;;
7179;SDS011;3631;42.152;24.756;2024-01-11T02:35:22;41.33;;;19.23;;
7179;SDS011;3631;42.152;24.756;2024-01-11T02:37:50;35.47;;;17.73;;
7179;SDS011;3631;42.152;24.756;2024-01-11T02:40:18;39.60;;;17.70;;
7179;SDS011;3631;42.152;24.756;2024-01-11T02:42:47;33.33;;;17.43;;
7179;SDS011;3631;42.152;24.756;2024-01-11T02:45:14;32.67;;;16.33;;
7179;SDS011;3631;42.152;24.756;2024-01-11T02:47:40;27.20;;;15.17;;
7179;SDS011;3631;42.152;24.756;2024-01-11T02:50:08;28.87;;;14.50;;
7179;SDS011;3631;42.152;24.756;2024-01-11T02:52:36;30.10;;;15.37;;
7179;SDS011;3631;42.152;24.756;2024-01-11T02:55:04;28.13;;;14.90;;
7179;SDS011;3631;42.152;24.756;2024-01-11T02:57:31;29.30;;;14.27;;
7179;SDS011;3631;42.152;24.756;2024-01-11T02:59:59;28.23;;;14.80;;
7179;SDS011;3631;42.152;24.756;2024-01-11T03:02:26;32.20;;;15.70;;
7179;SDS011;3631;42.152;24.756;2024-01-11T03:04:54;26.30;;;14.47;;
7179;SDS011;3631;42.152;24.756;2024-01-11T03:07:21;28.70;;;15.17;;
7179;SDS011;3631;42.152;24.756;2024-01-11T03:09:48;29.23;;;15.73;;
7179;SDS011;3631;42.152;24.756;2024-01-11T03:12:15;32.27;;;16.17;;
7179;SDS011;3631;42.152;24.756;2024-01-11T03:14:42;31.67;;;15.80;;
7179;SDS011;3631;42.152;24.756;2024-01-11T03:17:10;29.30;;;15.47;;
7179;SDS011;3631;42.152;24.756;2024-01-11T03:19:39;27.83;;;15.53;;
7179;SDS011;3631;42.152;24.756;2024-01-11T03:22:06;34.00;;;15.73;;
7179;SDS011;3631;42.152;24.756;2024-01-11T03:24:37;26.47;;;14.73;;
7179;SDS011;3631;42.152;24.756;2024-01-11T03:27:04;26.83;;;14.70;;
7179;SDS011;3631;42.152;24.756;2024-01-11T03:29:32;28.53;;;15.17;;
7179;SDS011;3631;42.152;24.756;2024-01-11T03:31:59;30.50;;;16.00;;
7179;SDS011;3631;42.152;24.756;2024-01-11T03:34:27;26.53;;;14.97;;
7179;SDS011;3631;42.152;24.756;2024-01-11T03:36:54;24.77;;;14.77;;
7179;SDS011;3631;42.152;24.756;2024-01-11T03:39:21;24.83;;;13.90;;
7179;SDS011;3631;42.152;24.756;2024-01-11T03:41:47;26.27;;;15.13;;
7179;SDS011;3631;42.152;24.756;2024-01-11T03:44:14;29.77;;;15.10;;
7179;SDS011;3631;42.152;24.756;2024-01-11T03:46:41;26.50;;;14.40;;
7179;SDS011;3631;42.152;24.756;2024-01-11T03:49:08;26.57;;;14.57;;
7179;SDS011;3631;42.152;24.756;2024-01-11T03:51:37;23.13;;;13.37;;
7179;SDS011;3631;42.152;24.756;2024-01-11T03:54:04;23.30;;;12.27;;
7179;SDS011;3631;42.152;24.756;2024-01-11T03:56:31;16.67;;;10.80;;
7179;SDS011;3631;42.152;24.756;2024-01-11T03:58:56;17.13;;;10.00;;
7179;SDS011;3631;42.152;24.756;2024-01-11T04:01:23;22.50;;;10.37;;
7179;SDS011;3631;42.152;24.756;2024-01-11T04:03:50;19.43;;;9.57;;
7179;SDS011;3631;42.152;24.756;2024-01-11T04:06:20;17.57;;;9.30;;
7179;SDS011;3631;42.152;24.756;2024-01-11T04:08:50;16.80;;;8.50;;
7179;SDS011;3631;42.152;24.756;2024-01-11T04:11:17;15.47;;;9.30;;
7179;SDS011;3631;42.152;24.756;2024-01-11T04:13:44;16.00;;;9.30;;
7179;SDS011;3631;42.152;24.756;2024-01-11T04:16:11;13.23;;;8.17;;
7179;SDS011;3631;42.152;24.756;2024-01-11T04:18:38;16.07;;;8.53;;
7179;SDS011;3631;42.152;24.756;2024-01-11T04:21:05;18.33;;;9.43;;
7179;SDS011;3631;42.152;24.756;2024-01-11T04:23:32;15.35;;;8.95;;
7179;SDS011;3631;42.152;24.756;2024-01-11T04:26:00;15.93;;;8.27;;
7179;SDS011;3631;42.152;24.756;2024-01-11T04:28:27;17.13;;;9.10;;
7179;SDS011;3631;42.152;24.756;2024-01-11T04:30:54;15.87;;;9.47;;
7179;SDS011;3631;42.152;24.756;2024-01-11T04:33:21;13.73;;;9.03;;
7179;SDS011;3631;42.152;24.756;2024-01-11T04:35:48;14.77;;;9.30;;
7179;SDS011;3631;42.152;24.756;2024-01-11T04:38:14;16.07;;;9.70;;
7179;SDS011;3631;42.152;24.756;2024-01-11T04:40:41;19.77;;;10.83;;
7179;SDS011;3631;42.152;24.756;2024-01-11T04:43:09;18.73;;;9.90;;
7179;SDS011;3631;42.152;24.756;2024-01-11T04:45:36;27.43;;;10.87;;
7179;SDS011;3631;42.152;24.756;2024-01-11T04:48:04;19.57;;;11.80;;
7179;SDS011;3631;42.152;24.756;2024-01-11T04:50:31;20.73;;;11.07;;
7179;SDS011;3631;42.152;24.756;2024-01-11T04:52:58;18.57;;;10.40;;
7179;SDS011;3631;42.152;24.756;2024-01-11T04:55:25;17.47;;;10.27;;
7179;SDS011;3631;42.152;24.756;2024-01-11T04:57:52;17.20;;;10.77;;
7179;SDS011;3631;42.152;24.756;2024-01-11T05:00:20;14.97;;;9.90;;
7179;SDS011;3631;42.152;24.756;2024-01-11T05:02:47;18.03;;;10.97;;
7179;SDS011;3631;42.152;24.756;2024-01-11T05:05:14;16.77;;;10.07;;
7179;SDS011;3631;42.152;24.756;2024-01-11T05:07:41;19.20;;;10.67;;
7179;SDS011;3631;42.152;24.756;2024-01-11T05:10:08;22.73;;;12.50;;
7179;SDS011;3631;42.152;24.756;2024-01-11T05:12:35;26.20;;;10.93;;
7179;SDS011;3631;42.152;24.756;2024-01-11T05:15:03;22.07;;;11.77;;
7179;SDS011;3631;42.152;24.756;2024-01-11T05:17:34;23.37;;;12.93;;
7179;SDS011;3631;42.152;24.756;2024-01-11T05:20:01;21.30;;;12.17;;
7179;SDS011;3631;42.152;24.756;2024-01-11T05:22:28;22.73;;;12.10;;
7179;SDS011;3631;42.152;24.756;2024-01-11T05:24:55;23.53;;;12.73;;
7179;SDS011;3631;42.152;24.756;2024-01-11T05:27:22;24.63;;;13.07;;
7179;SDS011;3631;42.152;24.756;2024-01-11T05:29:49;23.20;;;12.77;;
7179;SDS011;3631;42.152;24.756;2024-01-11T05:32:15;24.57;;;12.40;;
7179;SDS011;3631;42.152;24.756;2024-01-11T05:34:44;29.83;;;13.53;;
7179;SDS011;3631;42.152;24.756;2024-01-11T05:37:10;25.17;;;13.83;;
7179;SDS011;3631;42.152;24.756;2024-01-11T05:39:37;21.10;;;11.83;;
7179;SDS011;3631;42.152;24.756;2024-01-11T05:42:04;28.80;;;13.57;;
7179;SDS011;3631;42.152;24.756;2024-01-11T05:44:32;23.80;;;13.30;;
7179;SDS011;3631;42.152;24.756;2024-01-11T05:46:59;24.93;;;12.00;;
7179;SDS011;3631;42.152;24.756;2024-01-11T05:49:26;29.13;;;13.77;;
7179;SDS011;3631;42.152;24.756;2024-01-11T05:51:54;24.40;;;12.73;;
7179;SDS011;3631;42.152;24.756;2024-01-11T05:54:21;27.13;;;12.93;;
7179;SDS011;3631;42.152;24.756;2024-01-11T05:56:48;25.77;;;12.93;;
7179;SDS011;3631;42.152;24.756;2024-01-11T05:59:21;20.37;;;12.47;;
7179;SDS011;3631;42.152;24.756;2024-01-11T06:01:47;22.87;;;11.80;;
7179;SDS011;3631;42.152;24.756;2024-01-11T06:04:14;22.37;;;10.93;;
7179;SDS011;3631;42.152;24.756;2024-01-11T06:06:41;20.10;;;11.93;;
7179;SDS011;3631;42.152;24.756;2024-01-11T06:09:10;21.93;;;12.10;;
7179;SDS011;3631;42.152;24.756;2024-01-11T06:11:36;22.83;;;12.20;;
7179;SDS011;3631;42.152;24.756;2024-01-11T06:14:03;25.33;;;12.63;;
7179;SDS011;3631;42.152;24.756;2024-01-11T06:16:30;23.33;;;12.63;;
7179;SDS011;3631;42.152;24.756;2024-01-11T06:18:57;25.17;;;12.97;;
7179;SDS011;3631;42.152;24.756;2024-01-11T06:21:24;25.57;;;13.43;;
7179;SDS011;3631;42.152;24.756;2024-01-11T06:23:51;26.07;;;13.27;;
7179;SDS011;3631;42.152;24.756;2024-01-11T06:26:19;24.07;;;13.40;;
7179;SDS011;3631;42.152;24.756;2024-01-11T06:28:46;30.43;;;14.03;;
7179;SDS011;3631;42.152;24.756;2024-01-11T06:31:13;30.63;;;15.33;;
7179;SDS011;3631;42.152;24.756;2024-01-11T06:33:39;24.70;;;13.93;;
7179;SDS011;3631;42.152;24.756;2024-01-11T06:36:07;29.90;;;15.47;;
7179;SDS011;3631;42.152;24.756;2024-01-11T06:38:34;33.00;;;14.23;;
7179;SDS011;3631;42.152;24.756;2024-01-11T06:41:01;29.33;;;15.10;;
7179;SDS011;3631;42.152;24.756;2024-01-11T06:43:30;31.70;;;15.23;;
7179;SDS011;3631;42.152;24.756;2024-01-11T06:45:57;29.60;;;14.33;;
7179;SDS011;3631;42.152;24.756;2024-01-11T06:48:29;27.57;;;14.10;;
7179;SDS011;3631;42.152;24.756;2024-01-11T06:50:56;30.93;;;14.30;;
7179;SDS011;3631;42.152;24.756;2024-01-11T06:53:23;31.00;;;12.87;;
7179;SDS011;3631;42.152;24.756;2024-01-11T06:55:49;24.17;;;13.10;;
7179;SDS011;3631;42.152;24.756;2024-01-11T06:58:17;25.17;;;12.87;;
7179;SDS011;3631;42.152;24.756;2024-01-11T07:00:48;22.27;;;11.93;;
7179;SDS011;3631;42.152;24.756;2024-01-11T07:03:16;23.90;;;13.37;;
7179;SDS011;3631;42.152;24.756;2024-01-11T07:05:43;24.60;;;13.10;;
7179;SDS011;3631;42.152;24.756;2024-01-11T07:08:10;19.33;;;12.33;;
7179;SDS011;3631;42.152;24.756;2024-01-11T07:10:37;24.07;;;13.50;;
7179;SDS011;3631;42.152;24.756;2024-01-11T07:13:04;24.60;;;13.20;;
7179;SDS011;3631;42.152;24.756;2024-01-11T07:15:31;19.33;;;12.13;;
7179;SDS011;3631;42.152;24.756;2024-01-11T07:18:00;20.17;;;11.80;;
7179;SDS011;3631;42.152;24.756;2024-01-11T07:20:27;25.13;;;12.87;;
7179;SDS011;3631;42.152;24.756;2024-01-11T07:22:53;24.77;;;12.87;;
7179;SDS011;3631;42.152;24.756;2024-01-11T07:25:20;26.00;;;14.03;;
7179;SDS011;3631;42.152;24.756;2024-01-11T07:27:47;21.90;;;13.00;;
7179;SDS011;3631;42.152;24.756;2024-01-11T07:30:14;22.03;;;12.63;;
7179;SDS011;3631;42.152;24.756;2024-01-11T07:32:42;21.13;;;12.37;;
7179;SDS011;3631;42.152;24.756;2024-01-11T07:35:11;20.93;;;12.20;;
7179;SDS011;3631;42.152;24.756;2024-01-11T07:37:37;23.43;;;12.10;;
7179;SDS011;3631;42.152;24.756;2024-01-11T07:40:05;23.30;;;12.50;;
7179;SDS011;3631;42.152;24.756;2024-01-11T07:42:35;19.80;;;10.27;;
7179;SDS011;3631;42.152;24.756;2024-01-11T07:45:03;20.13;;;10.37;;
7179;SDS011;3631;42.152;24.756;2024-01-11T07:47:31;23.73;;;10.27;;
7179;SDS011;3631;42.152;24.756;2024-01-11T07:49:58;15.73;;;10.20;;
7179;SDS011;3631;42.152;24.756;2024-01-11T07:52:26;23.53;;;10.60;;
7179;SDS011;3631;42.152;24.756;2024-01-11T07:54:53;23.30;;;12.07;;
7179;SDS011;3631;42.152;24.756;2024-01-11T07:57:20;23.47;;;11.57;;
7179;SDS011;3631;42.152;24.756;2024-01-11T07:59:48;26.17;;;11.87;;
7179;SDS011;3631;42.152;24.756;2024-01-11T08:02:15;23.70;;;11.37;;
7179;SDS011;3631;42.152;24.756;2024-01-11T08:04:41;24.93;;;11.40;;
7179;SDS011;3631;42.152;24.756;2024-01-11T08:07:08;21.77;;;11.07;;
7179;SDS011;3631;42.152;24.756;2024-01-11T08:09:37;18.63;;;10.60;;
7179;SDS011;3631;42.152;24.756;2024-01-11T08:12:10;22.03;;;11.40;;
7179;SDS011;3631;42.152;24.756;2024-01-11T08:14:37;19.63;;;11.00;;
7179;SDS011;3631;42.152;24.756;2024-01-11T08:17:04;18.00;;;10.30;;
7179;SDS011;3631;42.152;24.756;2024-01-11T08:19:31;17.73;;;10.70;;
7179;SDS011;3631;42.152;24.756;2024-01-11T08:21:58;17.00;;;9.93;;
7179;SDS011;3631;42.152;24.756;2024-01-11T08:24:25;16.20;;;10.50;;
7179;SDS011;3631;42.152;24.756;2024-01-11T08:26:53;24.27;;;11.50;;
7179;SDS011;3631;42.152;24.756;2024-01-11T08:29:20;22.67;;;10.83;;
7179;SDS011;3631;42.152;24.756;2024-01-11T08:31:47;22.87;;;10.70;;
7179;SDS011;3631;42.152;24.756;2024-01-11T08:34:14;18.23;;;10.83;;
7179;SDS011;3631;42.152;24.756;2024-01-11T08:36:41;19.43;;;11.87;;
7179;SDS011;3631;42.152;24.756;2024-01-11T08:39:08;18.90;;;11.13;;
7179;SDS011;3631;42.152;24.756;2024-01-11T08:41:36;22.70;;;11.43;;
7179;SDS011;3631;42.152;24.756;2024-01-11T08:44:05;26.87;;;12.87;;
7179;SDS011;3631;42.152;24.756;2024-01-11T08:46:32;21.93;;;12.20;;
7179;SDS011;3631;42.152;24.756;2024-01-11T08:49:00;22.77;;;11.93;;
7179;SDS011;3631;42.152;24.756;2024-01-11T08:51:28;19.17;;;11.10;;
7179;SDS011;3631;42.152;24.756;2024-01-11T08:53:55;22.00;;;12.53;;
7179;SDS011;3631;42.152;24.756;2024-01-11T08:56:22;24.23;;;12.83;;
7179;SDS011;3631;42.152;24.756;2024-01-11T08:58:49;20.67;;;11.97;;
7179;SDS011;3631;42.152;24.756;2024-01-11T09:01:17;20.57;;;12.63;;
7179;SDS011;3631;42.152;24.756;2024-01-11T09:03:44;20.67;;;12.47;;
7179;SDS011;3631;42.152;24.756;2024-01-11T09:06:13;25.00;;;12.33;;
7179;SDS011;3631;42.152;24.756;2024-01-11T09:08:40;20.13;;;12.17;;
7179;SDS011;3631;42.152;24.756;2024-01-11T09:11:07;21.33;;;12.00;;
7179;SDS011;3631;42.152;24.756;2024-01-11T09:13:35;27.83;;;13.33;;
7179;SDS011;3631;42.152;24.756;2024-01-11T09:16:03;27.13;;;11.40;;
7179;SDS011;3631;42.152;24.756;2024-01-11T09:18:33;19.80;;;11.67;;
7179;SDS011;3631;42.152;24.756;2024-01-11T09:21:00;19.90;;;12.27;;
7179;SDS011;3631;42.152;24.756;2024-01-11T09:23:29;18.80;;;12.00;;
7179;SDS011;3631;42.152;24.756;2024-01-11T09:25:55;20.10;;;12.47;;
7179;SDS011;3631;42.152;24.756;2024-01-11T09:28:22;27.10;;;13.13;;
7179;SDS011;3631;42.152;24.756;2024-01-11T09:30:49;21.57;;;11.90;;
7179;SDS011;3631;42.152;24.756;2024-01-11T09:33:16;17.43;;;11.00;;
7179;SDS011;3631;42.152;24.756;2024-01-11T09:35:44;19.00;;;10.63;;
7179;SDS011;3631;42.152;24.756;2024-01-11T09:38:11;15.13;;;10.53;;
7179;SDS011;3631;42.152;24.756;2024-01-11T09:40:38;22.03;;;11.27;;
7179;SDS011;3631;42.152;24.756;2024-01-11T09:43:05;14.70;;;10.07;;
7179;SDS011;3631;42.152;24.756;2024-01-11T09:45:35;18.70;;;10.70;;
7179;SDS011;3631;42.152;24.756;2024-01-11T09:48:04;17.07;;;10.60;;
7179;SDS011;3631;42.152;24.756;2024-01-11T09:50:32;17.50;;;10.57;;
7179;SDS011;3631;42.152;24.756;2024-01-11T09:53:01;17.30;;;10.60;;
7179;SDS011;3631;42.152;24.756;2024-01-11T09:55:30;16.43;;;10.20;;
7179;SDS011;3631;42.152;24.756;2024-01-11T09:57:57;23.57;;;11.73;;
7179;SDS011;3631;42.152;24.756;2024-01-11T10:00:26;19.53;;;10.47;;
7179;SDS011;3631;42.152;24.756;2024-01-11T10:02:54;20.53;;;11.20;;
7179;SDS011;3631;42.152;24.756;2024-01-11T10:05:21;18.60;;;11.37;;
7179;SDS011;3631;42.152;24.756;2024-01-11T10:07:49;18.40;;;9.97;;
7179;SDS011;3631;42.152;24.756;2024-01-11T10:10:17;14.67;;;10.10;;
7179;SDS011;3631;42.152;24.756;2024-01-11T10:12:45;17.83;;;10.20;;
7179;SDS011;3631;42.152;24.756;2024-01-11T10:15:13;16.83;;;10.50;;
7179;SDS011;3631;42.152;24.756;2024-01-11T10:17:41;13.93;;;9.90;;
7179;SDS011;3631;42.152;24.756;2024-01-11T10:20:09;15.87;;;10.27;;
7179;SDS011;3631;42.152;24.756;2024-01-11T10:22:38;12.80;;;9.20;;
7179;SDS011;3631;42.152;24.756;2024-01-11T10:25:10;22.13;;;10.70;;
7179;SDS011;3631;42.152;24.756;2024-01-11T10:27:39;13.50;;;9.30;;
7179;SDS011;3631;42.152;24.756;2024-01-11T10:30:08;15.50;;;9.70;;
7179;SDS011;3631;42.152;24.756;2024-01-11T10:32:38;15.77;;;9.80;;
7179;SDS011;3631;42.152;24.756;2024-01-11T10:35:05;14.40;;;9.47;;
7179;SDS011;3631;42.152;24.756;2024-01-11T10:37:32;15.20;;;9.47;;
7179;SDS011;3631;42.152;24.756;2024-01-11T10:40:01;16.07;;;9.73;;
7179;SDS011;3631;42.152;24.756;2024-01-11T10:42:34;14.53;;;9.53;;
7179;SDS011;3631;42.152;24.756;2024-01-11T10:45:06;12.67;;;8.97;;
7179;SDS011;3631;42.152;24.756;2024-01-11T10:47:40;15.07;;;10.13;;
7179;SDS011;3631;42.152;24.756;2024-01-11T10:50:12;19.57;;;10.67;;
7179;SDS011;3631;42.152;24.756;2024-01-11T10:52:42;16.63;;;9.67;;
7179;SDS011;3631;42.152;24.756;2024-01-11T10:55:12;16.43;;;10.53;;
7179;SDS011;3631;42.152;24.756;2024-01-11T10:57:39;20.30;;;10.23;;
7179;SDS011;3631;42.152;24.756;2024-01-11T11:00:09;13.47;;;9.23;;
7179;SDS011;3631;42.152;24.756;2024-01-11T11:02:37;14.23;;;9.40;;
7179;SDS011;3631;42.152;24.756;2024-01-11T11:05:06;14.83;;;9.07;;
7179;SDS011;3631;42.152;24.756;2024-01-11T11:07:36;35.13;;;17.67;;
7179;SDS011;3631;42.152;24.756;2024-01-11T11:10:05;17.03;;;10.80;;
7179;SDS011;3631;42.152;24.756;2024-01-11T11:12:35;14.77;;;10.10;;
7179;SDS011;3631;42.152;24.756;2024-01-11T11:15:04;18.40;;;9.87;;
7179;SDS011;3631;42.152;24.756;2024-01-11T11:17:34;15.47;;;9.53;;
7179;SDS011;3631;42.152;24.756;2024-01-11T11:20:01;14.37;;;9.73;;
7179;SDS011;3631;42.152;24.756;2024-01-11T11:22:33;19.07;;;9.17;;
7179;SDS011;3631;42.152;24.756;2024-01-11T11:25:04;17.97;;;9.10;;
7179;SDS011;3631;42.152;24.756;2024-01-11T11:27:34;19.27;;;9.50;;
7179;SDS011;3631;42.152;24.756;2024-01-11T11:30:02;14.67;;;9.17;;
7179;SDS011;3631;42.152;24.756;2024-01-11T11:32:38;14.77;;;9.13;;
7179;SDS011;3631;42.152;24.756;2024-01-11T11:35:09;11.87;;;7.97;;
7179;SDS011;3631;42.152;24.756;2024-01-11T11:37:36;18.13;;;9.20;;
7179;SDS011;3631;42.152;24.756;2024-01-11T11:40:04;17.00;;;9.17;;
7179;SDS011;3631;42.152;24.756;2024-01-11T11:42:34;17.20;;;10.27;;
7179;SDS011;3631;42.152;24.756;2024-01-11T11:45:01;18.27;;;12.07;;
7179;SDS011;3631;42.152;24.756;2024-01-11T11:47:34;14.80;;;10.10;;
7179;SDS011;3631;42.152;24.756;2024-01-11T11:50:07;11.03;;;8.33;;
7179;SDS011;3631;42.152;24.756;2024-01-11T11:52:36;13.20;;;7.77;;
7179;SDS011;3631;42.152;24.756;2024-01-11T11:55:04;26.47;;;9.20;;
7179;SDS011;3631;42.152;24.756;2024-01-11T11:57:33;20.73;;;8.37;;
7179;SDS011;3631;42.152;24.756;2024-01-11T12:00:01;14.63;;;7.60;;
7179;SDS011;3631;42.152;24.756;2024-01-11T12:02:30;12.43;;;7.13;;
7179;SDS011;3631;42.152;24.756;2024-01-11T12:04:58;12.97;;;8.20;;
7179;SDS011;3631;42.152;24.756;2024-01-11T12:07:26;14.80;;;8.33;;
7179;SDS011;3631;42.152;24.756;2024-01-11T12:09:53;10.03;;;7.07;;
7179;SDS011;3631;42.152;24.756;2024-01-11T12:12:20;13.17;;;7.43;;
7179;SDS011;3631;42.152;24.756;2024-01-11T12:14:47;12.13;;;8.40;;
7179;SDS011;3631;42.152;24.756;2024-01-11T12:17:15;11.77;;;8.20;;
7179;SDS011;3631;42.152;24.756;2024-01-11T12:19:42;8.90;;;7.53;;
7179;SDS011;3631;42.152;24.756;2024-01-11T12:22:08;9.70;;;7.27;;
7179;SDS011;3631;42.152;24.756;2024-01-11T12:24:37;8.73;;;6.93;;
7179;SDS011;3631;42.152;24.756;2024-01-11T12:27:04;11.03;;;7.17;;
7179;SDS011;3631;42.152;24.756;2024-01-11T12:29:31;11.37;;;7.60;;
7179;SDS011;3631;42.152;24.756;2024-01-11T12:31:59;10.80;;;7.60;;
7179;SDS011;3631;42.152;24.756;2024-01-11T12:34:26;15.50;;;7.73;;
7179;SDS011;3631;42.152;24.756;2024-01-11T12:36:55;12.07;;;8.13;;
7179;SDS011;3631;42.152;24.756;2024-01-11T12:39:25;11.43;;;7.77;;
7179;SDS011;3631;42.152;24.756;2024-01-11T12:41:55;10.53;;;7.53;;
7179;SDS011;3631;42.152;24.756;2024-01-11T12:44:23;11.67;;;7.10;;
7179;SDS011;3631;42.152;24.756;2024-01-11T12:46:50;10.60;;;6.87;;
7179;SDS011;3631;42.152;24.756;2024-01-11T12:49:18;8.40;;;6.87;;
7179;SDS011;3631;42.152;24.756;2024-01-11T12:51:45;13.97;;;7.57;;
7179;SDS011;3631;42.152;24.756;2024-01-11T12:54:12;10.73;;;7.20;;
7179;SDS011;3631;42.152;24.756;2024-01-11T12:56:40;7.37;;;6.23;;
7179;SDS011;3631;42.152;24.756;2024-01-11T12:59:10;10.20;;;7.47;;
7179;SDS011;3631;42.152;24.756;2024-01-11T13:01:37;11.80;;;7.20;;
7179;SDS011;3631;42.152;24.756;2024-01-11T13:04:05;10.30;;;6.10;;
7179;SDS011;3631;42.152;24.756;2024-01-11T13:06:33;9.77;;;6.00;;
7179;SDS011;3631;42.152;24.756;2024-01-11T13:09:01;8.63;;;6.43;;
7179;SDS011;3631;42.152;24.756;2024-01-11T13:11:29;9.90;;;7.03;;
7179;SDS011;3631;42.152;24.756;2024-01-11T13:13:55;11.17;;;6.60;;
7179;SDS011;3631;42.152;24.756;2024-01-11T13:16:25;10.70;;;6.93;;
7179;SDS011;3631;42.152;24.756;2024-01-11T13:18:52;11.37;;;6.80;;
7179;SDS011;3631;42.152;24.756;2024-01-11T13:21:19;10.50;;;7.33;;
7179;SDS011;3631;42.152;24.756;2024-01-11T13:23:46;10.33;;;7.30;;
7179;SDS011;3631;42.152;24.756;2024-01-11T13:26:13;8.50;;;6.90;;
7179;SDS011;3631;42.152;24.756;2024-01-11T13:28:40;11.73;;;7.37;;
7179;SDS011;3631;42.152;24.756;2024-01-11T13:31:07;13.20;;;7.60;;
7179;SDS011;3631;42.152;24.756;2024-01-11T13:33:37;12.00;;;8.37;;
7179;SDS011;3631;42.152;24.756;2024-01-11T13:36:05;12.00;;;8.77;;
7179;SDS011;3631;42.152;24.756;2024-01-11T13:38:32;15.40;;;9.57;;
7179;SDS011;3631;42.152;24.756;2024-01-11T13:40:59;14.00;;;9.40;;
7179;SDS011;3631;42.152;24.756;2024-01-11T13:43:26;16.77;;;9.20;;
7179;SDS011;3631;42.152;24.756;2024-01-11T13:45:53;12.67;;;8.53;;
7179;SDS011;3631;42.152;24.756;2024-01-11T13:48:20;13.80;;;9.10;;
7179;SDS011;3631;42.152;24.756;2024-01-11T13:50:49;13.50;;;8.93;;
7179;SDS011;3631;42.152;24.756;2024-01-11T13:53:16;13.17;;;8.10;;
7179;SDS011;3631;42.152;24.756;2024-01-11T13:55:43;17.57;;;9.30;;
7179;SDS011;3631;42.152;24.756;2024-01-11T13:58:10;15.40;;;8.40;;
7179;SDS011;3631;42.152;24.756;2024-01-11T14:00:38;9.47;;;7.40;;
7179;SDS011;3631;42.152;24.756;2024-01-11T14:03:05;12.20;;;8.30;;
7179;SDS011;3631;42.152;24.756;2024-01-11T14:05:33;18.97;;;11.00;;
7179;SDS011;3631;42.152;24.756;2024-01-11T14:08:02;25.20;;;13.63;;
7179;SDS011;3631;42.152;24.756;2024-01-11T14:10:32;24.33;;;13.50;;
7179;SDS011;3631;42.152;24.756;2024-01-11T14:12:59;23.83;;;13.50;;
7179;SDS011;3631;42.152;24.756;2024-01-11T14:15:27;26.90;;;12.40;;
7179;SDS011;3631;42.152;24.756;2024-01-11T14:17:54;26.33;;;13.57;;
7179;SDS011;3631;42.152;24.756;2024-01-11T14:20:21;26.97;;;13.23;;
7179;SDS011;3631;42.152;24.756;2024-01-11T14:22:48;36.47;;;15.10;;
7179;SDS011;3631;42.152;24.756;2024-01-11T14:25:18;25.13;;;14.13;;
7179;SDS011;3631;42.152;24.756;2024-01-11T14:27:46;27.30;;;14.73;;
7179;SDS011;3631;42.152;24.756;2024-01-11T14:30:14;26.70;;;14.67;;
7179;SDS011;3631;42.152;24.756;2024-01-11T14:32:41;26.50;;;16.03;;
7179;SDS011;3631;42.152;24.756;2024-01-11T14:35:08;21.37;;;13.00;;
7179;SDS011;3631;42.152;24.756;2024-01-11T14:37:36;25.83;;;14.80;;
7179;SDS011;3631;42.152;24.756;2024-01-11T14:40:04;27.50;;;15.17;;